| Date | Time | Temp. (oF) | Dew Point (oF) | Rel. Hum. (%) | Press. (in.) | Wind Dir. | Wind Speed (mph) | Hourly Rainfall (in.) |
|
|---|---|---|---|---|---|---|---|---|---|
| 1 | 11/12 | 00:00 | 49 | 49 | 100 | 30.01 | N | 0 | 0.00 |
| 2 | 11/11 | 23:00 | 49 | 48 | 98 | 30.02 | NNW | 3 | 0.00 |
| 3 | 11/11 | 22:00 | 50 | 48 | 96 | 30.03 | NNE | 3 | 0.00 |
| 4 | 11/11 | 21:00 | 50 | 48 | 95 | 30.03 | SSE | 1 | 0.00 |
| 5 | 11/11 | 20:00 | 49 | 48 | 97 | 30.03 | S | 4 | 0.00 |
| 6 | 11/11 | 19:00 | 50 | 47 | 91 | 30.06 | WNW | 2 | 0.00 |
| 7 | 11/11 | 18:00 | 52 | 47 | 85 | 30.06 | SSW | 6 | 0.00 |
| 8 | 11/11 | 17:00 | 52 | 46 | 82 | 30.05 | S | 5 | 0.00 |
| 9 | 11/11 | 16:00 | 52 | 47 | 84 | 30.06 | SSW | 3 | 0.00 |
| 10 | 11/11 | 15:00 | 52 | 47 | 86 | 30.07 | SSW | 3 | 0.00 |
| 11 | 11/11 | 14:00 | 51 | 47 | 87 | 30.09 | SE | 3 | 0.00 |
| 12 | 11/11 | 13:00 | 50 | 47 | 92 | 30.12 | S | 3 | 0.00 |
| 13 | 11/11 | 12:00 | 49 | 46 | 90 | 30.15 | S | 4 | 0.00 |
| 14 | 11/11 | 11:00 | 47 | 44 | 90 | 30.19 | S | 8 | 0.00 |
| 15 | 11/11 | 10:00 | 46 | 43 | 92 | 30.22 | S | 7 | 0.00 |
| 16 | 11/11 | 09:00 | 38 | 37 | 98 | 30.25 | NW | 1 | 0.00 |
| 17 | 11/11 | 08:00 | 33 | 32 | 100 | 30.26 | N | 0 | 0.00 |
| 18 | 11/11 | 07:00 | 29 | 28 | 98 | 30.26 | NNW | 1 | 0.00 |
| 19 | 11/11 | 06:00 | 29 | 28 | 96 | 30.28 | NNE | 1 | 0.00 |
| 20 | 11/11 | 05:00 | 30 | 28 | 94 | 30.30 | N | 0 | 0.00 |
| 21 | 11/11 | 04:00 | 30 | 27 | 92 | 30.32 | NNW | 0 | 0.00 |
| 22 | 11/11 | 03:00 | 31 | 28 | 90 | 30.36 | N | 0 | 0.00 |
| 23 | 11/11 | 02:00 | 32 | 28 | 88 | 30.37 | N | 1 | 0.00 |
| 24 | 11/11 | 01:00 | 33 | 28 | 85 | 30.37 | N | 0 | 0.00 |